createdAt,value
2018-04-24T00:01:19.776Z,5.87
2018-04-24T00:04:30.036Z,7.23
2018-04-24T00:07:39.477Z,5.80
2018-04-24T00:10:48.919Z,7.77
2018-04-24T00:13:58.352Z,6.70
2018-04-24T00:17:08.612Z,7.30
2018-04-24T00:20:18.068Z,8.70
2018-04-24T00:23:29.989Z,5.30
2018-04-24T00:26:39.463Z,7.97
2018-04-24T00:29:49.424Z,9.00
2018-04-24T00:32:59.715Z,10.13
2018-04-24T00:36:09.980Z,5.17
2018-04-24T00:39:19.409Z,5.87
2018-04-24T00:42:30.640Z,8.50
2018-04-24T00:45:40.550Z,10.67
2018-04-24T00:48:50.792Z,10.63
2018-04-24T00:52:00.272Z,7.67
2018-04-24T00:55:09.763Z,10.50
2018-04-24T00:58:19.367Z,10.87
2018-04-24T01:01:31.684Z,11.70
2018-04-24T01:04:41.524Z,7.80
2018-04-24T01:07:51.778Z,13.90
2018-04-24T01:11:01.181Z,10.53
2018-04-24T01:14:10.663Z,10.40
2018-04-24T01:17:20.520Z,11.90
2018-04-24T01:20:32.846Z,13.10
2018-04-24T01:23:44.076Z,12.07
2018-04-24T01:26:54.750Z,13.40
2018-04-24T01:30:05.644Z,9.13
2018-04-24T01:33:15.856Z,10.47
2018-04-24T01:36:25.168Z,8.23
2018-04-24T01:39:35.356Z,10.73
2018-04-24T01:42:45.056Z,12.23
2018-04-24T01:45:54.527Z,8.43
2018-04-24T01:49:04.326Z,9.10
2018-04-24T01:52:13.972Z,9.17
2018-04-24T01:55:23.824Z,9.43
2018-04-24T01:58:34.955Z,10.33
2018-04-24T02:01:44.368Z,10.87
2018-04-24T02:04:54.607Z,12.83
2018-04-24T02:08:04.037Z,9.03
2018-04-24T02:11:13.860Z,9.80
2018-04-24T02:14:23.383Z,9.47
2018-04-24T02:17:34.432Z,13.67
2018-04-24T02:20:44.230Z,13.60
2018-04-24T02:23:55.132Z,11.77
2018-04-24T02:27:05.363Z,15.57
2018-04-24T02:30:15.444Z,11.53
2018-04-24T02:33:25.311Z,13.33
2018-04-24T02:36:36.959Z,13.20
2018-04-24T02:39:46.461Z,14.27
2018-04-24T02:42:55.887Z,12.87
2018-04-24T02:46:05.974Z,13.43
2018-04-24T02:49:16.244Z,10.30
2018-04-24T02:52:26.084Z,11.63
2018-04-24T02:55:37.402Z,13.20
2018-04-24T02:58:47.197Z,8.63
2018-04-24T03:01:57.452Z,11.40
2018-04-24T03:05:07.120Z,13.53
2018-04-24T03:08:17.080Z,9.63
2018-04-24T03:11:26.569Z,7.53
2018-04-24T03:14:38.073Z,9.13
2018-04-24T03:17:47.928Z,6.60
2018-04-24T03:20:57.838Z,6.27
2018-04-24T03:24:08.081Z,8.20
2018-04-24T03:27:18.331Z,4.63
2018-04-24T03:30:28.777Z,6.30
2018-04-24T03:33:38.880Z,7.67
2018-04-24T03:36:48.948Z,5.37
2018-04-24T03:39:59.051Z,3.77
2018-04-24T03:43:09.141Z,5.10
2018-04-24T03:46:19.535Z,6.80
2018-04-24T03:49:30.829Z,4.40
2018-04-24T03:52:41.064Z,4.83
2018-04-24T03:55:50.491Z,7.30
2018-04-24T03:58:59.978Z,5.97
2018-04-24T04:02:10.077Z,7.83
2018-04-24T04:05:19.487Z,4.47
2018-04-24T04:08:29.725Z,6.13
2018-04-24T04:11:41.525Z,6.73
2018-04-24T04:14:51.677Z,6.67
2018-04-24T04:18:18.992Z,3.77
2018-04-24T04:25:09.688Z,7.00
2018-04-24T04:28:18.991Z,5.50
2018-04-24T04:31:29.259Z,8.60
2018-04-24T04:34:41.813Z,8.07
2018-04-24T04:37:52.206Z,7.00
2018-04-24T04:41:01.624Z,7.10
2018-04-24T04:44:11.478Z,7.50
2018-04-24T04:47:21.111Z,7.20
2018-04-24T04:50:30.975Z,6.93
2018-04-24T04:53:42.597Z,7.87
2018-04-24T04:56:52.800Z,7.93
2018-04-24T05:00:02.960Z,6.17
2018-04-24T05:03:13.149Z,6.23
2018-04-24T05:06:23.648Z,7.83
2018-04-24T05:09:33.676Z,7.53
2018-04-24T05:12:43.933Z,4.97
2018-04-24T05:15:55.184Z,7.40
2018-04-24T05:19:05.295Z,8.00
2018-04-24T05:22:15.502Z,5.50
2018-04-24T05:25:25.720Z,5.00
2018-04-24T05:28:36.022Z,5.73
2018-04-24T05:31:45.888Z,5.97
2018-04-24T05:34:56.182Z,5.80
2018-04-24T05:38:06.231Z,7.53
2018-04-24T05:41:17.745Z,9.70
2018-04-24T05:44:27.800Z,4.67
2018-04-24T05:47:37.213Z,4.20
2018-04-24T05:50:47.115Z,5.23
2018-04-24T05:53:56.588Z,7.50
2018-04-24T05:57:06.617Z,6.13
2018-04-24T06:00:16.953Z,5.60
2018-04-24T06:03:27.300Z,8.50
2018-04-24T06:06:37.212Z,7.87
2018-04-24T06:09:47.244Z,8.70
2018-04-24T06:12:57.517Z,6.47
2018-04-24T06:16:07.373Z,6.60
2018-04-24T06:19:17.214Z,6.93
2018-04-24T06:22:26.574Z,3.70
2018-04-24T06:25:36.911Z,7.07
2018-04-24T06:28:47.624Z,9.83
2018-04-24T06:31:57.815Z,5.27
2018-04-24T06:35:08.107Z,2.97
2018-04-24T06:38:18.534Z,6.80
2018-04-24T06:41:27.983Z,7.03
2018-04-24T06:44:37.375Z,6.67
2018-04-24T06:47:48.375Z,10.00
2018-04-24T06:50:58.648Z,8.80
2018-04-24T06:54:08.042Z,6.97
2018-04-24T06:57:18.292Z,7.67
2018-04-24T07:00:27.599Z,8.17
2018-04-24T07:03:37.825Z,7.67
2018-04-24T07:06:48.939Z,6.93
2018-04-24T07:09:58.464Z,8.20
2018-04-24T07:13:07.939Z,10.50
2018-04-24T07:16:17.385Z,7.13
2018-04-24T07:19:26.903Z,4.93
2018-04-24T07:22:36.444Z,10.03
2018-04-24T07:25:46.320Z,8.60
2018-04-24T07:28:57.606Z,9.30
2018-04-24T07:32:07.040Z,7.47
2018-04-24T07:35:16.520Z,8.90
2018-04-24T07:38:26.938Z,13.03
2018-04-24T07:41:36.802Z,8.17
2018-04-24T07:44:47.061Z,9.47
2018-04-24T07:47:56.580Z,9.30
2018-04-24T07:51:06.090Z,8.67
2018-04-24T07:54:15.503Z,6.47
2018-04-24T07:57:25.084Z,10.60
2018-04-24T08:00:34.872Z,11.60
2018-04-24T08:03:44.209Z,5.90
2018-04-24T08:06:54.478Z,10.03
2018-04-24T08:10:04.520Z,9.33
2018-04-24T08:13:14.598Z,8.23
2018-04-24T08:16:23.899Z,10.53
2018-04-24T08:19:33.339Z,7.20
2018-04-24T08:22:42.831Z,9.50
2018-04-24T08:25:52.260Z,7.73
2018-04-24T08:29:02.132Z,10.97
2018-04-24T08:32:12.339Z,9.73
2018-04-24T08:35:22.093Z,10.43
2018-04-24T08:38:31.892Z,10.63
2018-04-24T08:41:41.264Z,12.03
2018-04-24T08:44:51.431Z,13.23
2018-04-24T08:48:00.758Z,10.37
2018-04-24T08:51:10.496Z,10.80
2018-04-24T08:54:19.740Z,11.40
2018-04-24T08:57:29.279Z,9.20
2018-04-24T09:00:38.619Z,9.57
2018-04-24T09:03:49.070Z,11.80
2018-04-24T09:06:59.328Z,10.60
2018-04-24T09:10:09.073Z,10.73
2018-04-24T09:13:18.441Z,10.80
2018-04-24T09:16:28.658Z,14.07
2018-04-24T09:19:38.875Z,9.23
2018-04-24T09:22:49.211Z,10.77
2018-04-24T09:25:59.036Z,9.63
2018-04-24T09:29:08.485Z,8.77
2018-04-24T09:32:17.832Z,10.07
2018-04-24T09:35:28.112Z,10.23
2018-04-24T09:38:37.432Z,11.50
2018-04-24T09:41:47.107Z,9.73
2018-04-24T09:44:56.995Z,7.73
2018-04-24T09:48:06.492Z,10.83
2018-04-24T09:51:15.809Z,9.40
2018-04-24T09:54:25.179Z,8.87
2018-04-24T09:57:34.548Z,9.83
2018-04-24T10:00:44.256Z,7.47
2018-04-24T10:03:54.508Z,11.87
2018-04-24T10:07:03.944Z,13.47
2018-04-24T10:10:13.396Z,16.13
2018-04-24T10:13:23.511Z,10.03
2018-04-24T10:16:33.265Z,10.37
2018-04-24T10:19:42.665Z,10.57
2018-04-24T10:22:53.033Z,10.80
2018-04-24T10:26:02.816Z,11.93
2018-04-24T10:29:12.155Z,12.20
2018-04-24T10:32:21.556Z,14.53
2018-04-24T10:35:31.771Z,8.13
2018-04-24T10:38:41.157Z,8.03
2018-04-24T10:41:50.603Z,14.07
2018-04-24T10:45:00.047Z,11.03
2018-04-24T10:48:09.421Z,12.47
2018-04-24T10:51:18.795Z,9.87
2018-04-24T10:54:29.050Z,10.60
2018-04-24T10:57:39.147Z,10.33
2018-04-24T11:00:48.750Z,11.00
2018-04-24T11:03:58.818Z,9.67
2018-04-24T11:07:08.926Z,10.53
2018-04-24T11:10:19.172Z,14.20
2018-04-24T11:13:29.324Z,13.70
2018-04-24T11:16:39.465Z,16.83
2018-04-24T11:19:49.640Z,16.43
2018-04-24T11:22:59.744Z,16.37
2018-04-24T11:26:09.876Z,11.00
2018-04-24T11:29:19.260Z,16.30
2018-04-24T11:32:28.468Z,12.83
2018-04-24T11:35:38.317Z,12.27
2018-04-24T11:38:48.387Z,12.00
2018-04-24T11:41:58.584Z,11.17
2018-04-24T11:45:08.696Z,13.67
2018-04-24T11:48:17.904Z,13.93
2018-04-24T11:51:27.323Z,17.87
2018-04-24T11:54:36.810Z,24.07
2018-04-24T11:57:46.965Z,15.80
2018-04-24T12:00:56.905Z,16.33
2018-04-24T12:04:06.350Z,14.83
2018-04-24T12:07:15.813Z,21.43
2018-04-24T12:10:25.283Z,17.43
2018-04-24T12:13:34.711Z,14.30
2018-04-24T12:16:44.107Z,17.97
2018-04-24T12:19:53.557Z,16.70
2018-04-24T12:23:03.388Z,16.83
2018-04-24T12:26:12.700Z,15.83
2018-04-24T12:29:22.181Z,16.87
2018-04-24T12:32:31.591Z,16.43
2018-04-24T12:35:41.708Z,18.77
2018-04-24T12:38:51.463Z,15.37
2018-04-24T12:42:01.971Z,17.97
2018-04-24T12:45:11.702Z,17.33
2018-04-24T12:48:21.449Z,18.70
2018-04-24T12:51:30.850Z,15.30
2018-04-24T12:54:41.191Z,16.93
2018-04-24T12:57:50.482Z,16.17
2018-04-24T13:00:59.967Z,15.13
2018-04-24T13:04:09.382Z,14.33
2018-04-24T13:07:18.825Z,20.97
2018-04-24T13:10:28.575Z,18.77
2018-04-24T13:13:37.930Z,16.53
2018-04-24T13:16:47.319Z,18.07
2018-04-24T13:19:57.025Z,20.17
2018-04-24T13:23:07.205Z,19.20
2018-04-24T13:26:16.998Z,16.83
2018-04-24T13:29:26.758Z,20.37
2018-04-24T13:32:36.147Z,16.77
2018-04-24T13:35:45.655Z,18.13
2018-04-24T13:38:55.731Z,19.27
2018-04-24T13:42:05.864Z,18.43
2018-04-24T13:45:15.921Z,18.53
2018-04-24T13:48:25.243Z,19.13
2018-04-24T13:51:36.356Z,18.27
2018-04-24T13:54:46.162Z,19.33
2018-04-24T13:57:55.926Z,16.73
2018-04-24T14:01:06.068Z,16.83
2018-04-24T14:04:16.208Z,19.10
2018-04-24T14:07:26.563Z,18.87
2018-04-24T14:10:36.488Z,19.80
2018-04-24T14:13:45.784Z,19.83
2018-04-24T14:16:55.304Z,24.37
2018-04-24T14:20:04.868Z,25.53
2018-04-24T14:23:14.973Z,18.27
2018-04-24T14:26:25.144Z,17.93
2018-04-24T14:29:34.349Z,18.37
2018-04-24T14:32:43.786Z,19.50
2018-04-24T14:35:53.244Z,16.83
2018-04-24T14:39:03.345Z,17.37
2018-04-24T14:42:12.662Z,19.17
2018-04-24T14:45:23.442Z,17.83
2018-04-24T14:48:32.724Z,20.27
2018-04-24T14:51:42.341Z,14.27
2018-04-24T14:54:52.421Z,15.43
2018-04-24T14:58:02.580Z,18.23
2018-04-24T15:01:12.311Z,19.30
2018-04-24T15:04:22.262Z,17.10
2018-04-24T15:07:32.063Z,16.83
2018-04-24T15:10:41.437Z,17.90
2018-04-24T15:13:50.692Z,20.80
2018-04-24T15:17:00.621Z,20.83
2018-04-24T15:20:10.092Z,18.13
2018-04-24T15:23:19.339Z,19.53
2018-04-24T15:26:29.469Z,18.13
2018-04-24T15:29:39.579Z,20.90
2018-04-24T15:32:48.852Z,18.37
2018-04-24T15:35:58.304Z,17.60
2018-04-24T15:39:07.873Z,18.43
2018-04-24T15:42:17.206Z,16.13
2018-04-24T15:45:27.436Z,15.77
2018-04-24T15:48:36.738Z,20.40
2018-04-24T15:51:46.195Z,17.13
2018-04-24T15:54:56.524Z,22.10
2018-04-24T15:58:06.531Z,16.07
2018-04-24T16:01:15.927Z,18.73
2018-04-24T16:04:25.331Z,22.13
2018-04-24T16:07:35.191Z,19.97
2018-04-24T16:10:45.352Z,16.37
2018-04-24T16:13:55.382Z,15.97
2018-04-24T16:17:05.448Z,15.83
2018-04-24T16:20:14.827Z,16.80
2018-04-24T16:23:24.593Z,15.33
2018-04-24T16:26:34.168Z,16.93
2018-04-24T16:29:43.686Z,18.87
2018-04-24T16:32:52.985Z,15.73
2018-04-24T16:36:02.965Z,13.73
2018-04-24T16:39:12.773Z,14.93
2018-04-24T16:42:26.036Z,16.27
2018-04-24T16:45:36.244Z,15.30
2018-04-24T16:48:46.468Z,18.43
2018-04-24T16:51:55.778Z,15.83
2018-04-24T16:55:05.152Z,16.53
2018-04-24T16:58:14.544Z,19.33
2018-04-24T17:01:24.243Z,17.20
2018-04-24T17:04:33.990Z,15.37
2018-04-24T17:07:43.295Z,16.70
2018-04-24T17:10:52.508Z,19.47
2018-04-24T17:14:01.907Z,17.90
2018-04-24T17:17:12.456Z,16.63
2018-04-24T17:20:22.740Z,15.93
2018-04-24T17:23:32.061Z,23.70
2018-04-24T17:26:42.972Z,18.20
2018-04-24T17:29:54.129Z,18.00
2018-04-24T17:33:03.708Z,22.10
2018-04-24T17:36:15.734Z,17.30
2018-04-24T17:39:25.213Z,21.53
2018-04-24T17:42:34.721Z,21.03
2018-04-24T17:45:44.128Z,19.43
2018-04-24T17:48:53.365Z,21.87
2018-04-24T17:52:03.673Z,22.23
2018-04-24T17:55:17.182Z,20.67
2018-04-24T17:58:28.075Z,18.77
2018-04-24T18:01:38.494Z,18.37
2018-04-24T18:04:49.471Z,16.27
2018-04-24T18:07:59.429Z,20.77
2018-04-24T18:11:09.403Z,19.87
2018-04-24T18:14:18.866Z,22.73
2018-04-24T18:17:28.376Z,22.40
2018-04-24T18:20:37.956Z,22.80
2018-04-24T18:23:47.329Z,20.93
2018-04-24T18:26:57.752Z,20.27
2018-04-24T18:30:07.880Z,23.93
2018-04-24T18:33:18.555Z,19.63
2018-04-24T18:36:30.082Z,20.73
2018-04-24T18:39:39.988Z,24.57
2018-04-24T18:42:53.860Z,20.30
2018-04-24T18:46:04.196Z,20.37
2018-04-24T18:49:14.179Z,22.53
2018-04-24T18:52:24.048Z,22.60
2018-04-24T18:55:34.277Z,20.90
2018-04-24T18:58:44.457Z,22.23
2018-04-24T19:01:54.574Z,20.77
2018-04-24T19:05:05.648Z,23.20
2018-04-24T19:08:15.143Z,19.27
2018-04-24T19:11:26.030Z,23.67
2018-04-24T19:14:36.251Z,22.73
2018-04-24T19:17:45.831Z,21.43
2018-04-24T19:20:55.644Z,22.13
2018-04-24T19:24:05.080Z,27.97
2018-04-24T19:27:14.966Z,21.83
2018-04-24T19:30:25.086Z,20.53
2018-04-24T19:33:34.494Z,24.73
2018-04-24T19:36:43.995Z,22.20
2018-04-24T19:39:59.709Z,22.10
2018-04-24T19:43:09.093Z,23.60
2018-04-24T19:46:21.130Z,22.97
2018-04-24T19:49:36.019Z,21.57
2018-04-24T19:52:46.545Z,24.83
2018-04-24T19:55:57.693Z,25.83
2018-04-24T19:59:07.878Z,24.07
2018-04-24T20:02:17.958Z,22.60
2018-04-24T20:05:27.737Z,23.57
2018-04-24T20:08:37.945Z,26.13
2018-04-24T20:11:47.769Z,24.20
2018-04-24T20:14:57.469Z,24.73
2018-04-24T20:18:06.861Z,26.80
2018-04-24T20:21:16.285Z,25.13
2018-04-24T20:24:25.753Z,27.87
2018-04-24T20:27:35.789Z,31.33
2018-04-24T20:30:45.278Z,24.80
2018-04-24T20:33:54.698Z,28.27
2018-04-24T20:37:04.095Z,28.13
2018-04-24T20:40:14.040Z,26.80
2018-04-24T20:43:24.201Z,26.10
2018-04-24T20:46:34.083Z,27.83
2018-04-24T20:49:44.307Z,26.13
2018-04-24T20:52:54.060Z,30.77
2018-04-24T20:56:04.096Z,26.67
2018-04-24T20:59:14.323Z,24.80
2018-04-24T21:02:24.541Z,23.77
2018-04-24T21:05:34.816Z,25.57
2018-04-24T21:08:44.777Z,25.53
2018-04-24T21:11:54.888Z,22.63
2018-04-24T21:15:05.861Z,21.33
2018-04-24T21:18:15.690Z,19.90
2018-04-24T21:21:25.756Z,23.13
2018-04-24T21:24:35.552Z,25.23
2018-04-24T21:27:45.008Z,25.30
2018-04-24T21:30:58.613Z,27.40
2018-04-24T21:34:08.777Z,24.33
2018-04-24T21:37:19.128Z,26.27
2018-04-24T21:40:28.600Z,21.00
2018-04-24T21:43:38.101Z,25.63
2018-04-24T21:46:48.123Z,24.17
2018-04-24T21:49:59.203Z,24.73
2018-04-24T21:53:09.117Z,28.97
2018-04-24T21:56:19.151Z,24.97
2018-04-24T21:59:28.543Z,26.60
2018-04-24T22:02:38.645Z,25.27
2018-04-24T22:05:48.896Z,23.67
2018-04-24T22:08:59.118Z,22.50
2018-04-24T22:12:09.005Z,22.20
2018-04-24T22:15:18.840Z,29.03
2018-04-24T22:18:29.092Z,26.93
2018-04-24T22:21:39.022Z,23.07
2018-04-24T22:24:48.405Z,22.17
2018-04-24T22:27:57.815Z,24.47
2018-04-24T22:31:08.098Z,25.33
2018-04-24T22:34:18.006Z,22.00
2018-04-24T22:37:28.687Z,21.77
2018-04-24T22:40:39.642Z,24.20
2018-04-24T22:43:48.963Z,23.53
2018-04-24T22:47:00.187Z,24.90
2018-04-24T22:50:10.269Z,20.47
2018-04-24T22:53:19.691Z,23.47
2018-04-24T22:56:29.964Z,19.93
2018-04-24T22:59:39.413Z,24.63
2018-04-24T23:02:49.264Z,23.23
2018-04-24T23:05:59.298Z,22.87
2018-04-24T23:09:09.571Z,21.40
2018-04-24T23:12:37.192Z,22.17
2018-04-24T23:16:04.843Z,25.27
2018-04-24T23:19:32.060Z,20.47
2018-04-24T23:22:41.611Z,24.03
2018-04-24T23:25:51.491Z,21.50
2018-04-24T23:29:01.551Z,22.93
2018-04-24T23:32:11.361Z,21.13
2018-04-24T23:35:21.287Z,22.73
2018-04-24T23:38:31.463Z,21.27
2018-04-24T23:41:42.292Z,22.70
2018-04-24T23:44:51.995Z,25.70
2018-04-24T23:48:01.893Z,22.33
2018-04-24T23:51:12.381Z,24.10
2018-04-24T23:54:22.215Z,25.57
2018-04-24T23:57:32.448Z,22.43
